Time,TemperatureF,DewpointF,PressureIn,WindDirection,WindDirectionDegrees,WindSpeedMPH,WindSpeedGustMPH,Humidity,HourlyPrecipIn,Conditions,Clouds,dailyrainin,SoftwareType,DateUTC
2013-08-28 00:00:00,75.4,61.9,30.00,North,1,0.0,0.0,63,0.00,CLR,,0.00,WeatherDisplay:10.37,2013-08-28 05:00:00,
2013-08-28 00:05:00,75.2,61.7,30.00,North,1,0.0,0.0,63,0.00,CLR,,0.00,WeatherDisplay:10.37,2013-08-28 05:05:00,
2013-08-28 00:10:00,75.0,61.6,30.00,North,1,0.0,0.0,63,0.00,CLR,,0.00,WeatherDisplay:10.37,2013-08-28 05:10:00,
2013-08-28 00:15:00,75.0,61.6,30.00,North,1,0.0,0.0,63,0.00,CLR,,0.00,WeatherDisplay:10.37,2013-08-28 05:15:00,
2013-08-28 00:20:00,75.0,61.6,30.00,North,1,0.0,0.0,63,0.00,CLR,,0.00,WeatherDisplay:10.37,2013-08-28 05:20:00,
2013-08-28 00:25:00,74.8,61.8,30.00,North,1,0.0,0.0,64,0.00,CLR,,0.00,WeatherDisplay:10.37,2013-08-28 05:25:00,
2013-08-28 00:30:00,74.7,61.7,30.00,North,1,0.0,0.0,64,0.00,CLR,,0.00,WeatherDisplay:10.37,2013-08-28 05:30:00,
2013-08-28 00:35:00,74.7,61.7,30.00,North,1,0.0,0.0,64,0.00,CLR,,0.00,WeatherDisplay:10.37,2013-08-28 05:35:00,
2013-08-28 00:40:00,74.5,61.5,30.00,North,1,0.0,0.0,64,0.00,CLR,,0.00,WeatherDisplay:10.37,2013-08-28 05:40:00,
2013-08-28 00:45:00,74.3,61.3,30.00,North,1,0.0,0.0,64,0.00,CLR,,0.00,WeatherDisplay:10.37,2013-08-28 05:45:00,
2013-08-28 00:50:00,74.1,61.6,30.00,North,1,0.0,0.0,65,0.00,CLR,,0.00,WeatherDisplay:10.37,2013-08-28 05:50:00,
2013-08-28 00:55:00,73.8,61.3,30.00,North,1,0.0,0.0,65,0.00,CLR,,0.00,WeatherDisplay:10.37,2013-08-28 05:55:00,
2013-08-28 01:00:00,73.6,61.5,30.00,North,1,0.0,0.0,66,0.00,CLR,,0.00,WeatherDisplay:10.37,2013-08-28 06:00:00,
2013-08-28 01:05:00,73.2,61.2,29.99,North,1,0.0,0.0,66,0.00,CLR,,0.00,WeatherDisplay:10.37,2013-08-28 06:05:00,
2013-08-28 01:10:00,73.2,61.2,30.00,North,1,0.0,0.0,66,0.00,CLR,,0.00,WeatherDisplay:10.37,2013-08-28 06:10:00,
2013-08-28 01:15:00,72.9,61.3,30.00,North,1,0.0,0.0,67,0.00,CLR,,0.00,WeatherDisplay:10.37,2013-08-28 06:15:00,
2013-08-28 01:20:00,72.7,61.1,30.00,North,1,0.0,0.0,67,0.00,CLR,,0.00,WeatherDisplay:10.37,2013-08-28 06:20:00,
2013-08-28 01:25:00,72.7,61.1,30.00,North,1,0.0,0.0,67,0.00,CLR,,0.00,WeatherDisplay:10.37,2013-08-28 06:25:00,
2013-08-28 01:30:00,72.5,60.9,30.00,North,1,0.0,0.0,67,0.00,CLR,,0.00,WeatherDisplay:10.37,2013-08-28 06:30:00,
2013-08-28 01:35:00,72.5,61.3,30.00,North,1,0.0,0.0,68,0.00,CLR,,0.00,WeatherDisplay:10.37,2013-08-28 06:35:00,
2013-08-28 01:40:00,72.3,61.2,30.00,North,1,0.0,0.0,68,0.00,CLR,,0.00,WeatherDisplay:10.37,2013-08-28 06:40:00,
2013-08-28 01:45:00,72.1,61.0,29.99,North,1,0.0,0.0,68,0.00,CLR,,0.00,WeatherDisplay:10.37,2013-08-28 06:45:00,
2013-08-28 01:50:00,72.0,61.2,29.99,North,1,0.0,0.0,69,0.00,CLR,,0.00,WeatherDisplay:10.37,2013-08-28 06:50:00,
2013-08-28 01:55:00,72.0,61.2,30.00,North,1,0.0,0.0,69,0.00,CLR,,0.00,WeatherDisplay:10.37,2013-08-28 06:55:00,
2013-08-28 02:00:00,71.8,61.1,30.00,North,1,0.0,0.0,69,0.00,CLR,,0.00,WeatherDisplay:10.37,2013-08-28 07:00:00,
2013-08-28 02:05:00,71.6,60.9,30.00,North,1,0.0,0.0,69,0.00,CLR,,0.00,WeatherDisplay:10.37,2013-08-28 07:05:00,
2013-08-28 02:10:00,71.4,60.7,30.00,North,1,0.0,0.0,69,0.00,CLR,,0.00,WeatherDisplay:10.37,2013-08-28 07:10:00,
2013-08-28 02:15:00,71.2,60.5,29.99,North,1,0.0,0.0,69,0.00,CLR,,0.00,WeatherDisplay:10.37,2013-08-28 07:15:00,
2013-08-28 02:20:00,71.1,60.8,30.00,North,1,0.0,0.0,70,0.00,CLR,,0.00,WeatherDisplay:10.37,2013-08-28 07:20:00,
2013-08-28 02:25:00,71.1,60.8,29.99,North,1,0.0,0.0,70,0.00,CLR,,0.00,WeatherDisplay:10.37,2013-08-28 07:25:00,
2013-08-28 02:30:00,70.9,60.6,29.99,North,1,0.0,0.0,70,0.00,CLR,,0.00,WeatherDisplay:10.37,2013-08-28 07:30:00,
2013-08-28 02:35:00,70.9,61.0,29.99,North,1,0.0,0.0,71,0.00,CLR,,0.00,WeatherDisplay:10.37,2013-08-28 07:35:00,
2013-08-28 02:40:00,70.7,60.8,29.99,North,1,0.0,0.0,71,0.00,CLR,,0.00,WeatherDisplay:10.37,2013-08-28 07:40:00,
2013-08-28 02:45:00,70.5,60.7,29.99,North,1,0.0,0.0,71,0.00,CLR,,0.00,WeatherDisplay:10.37,2013-08-28 07:45:00,
2013-08-28 02:50:00,70.3,60.9,29.99,North,1,0.0,0.0,72,0.00,CLR,,0.00,WeatherDisplay:10.37,2013-08-28 07:50:00,
2013-08-28 02:55:00,70.3,60.9,29.99,North,1,0.0,0.0,72,0.00,CLR,,0.00,WeatherDisplay:10.37,2013-08-28 07:55:00,
2013-08-28 03:00:00,70.3,60.9,29.99,North,1,0.0,0.0,72,0.00,CLR,,0.00,WeatherDisplay:10.37,2013-08-28 08:00:00,
2013-08-28 03:05:00,70.5,61.1,29.99,North,1,0.0,0.0,72,0.00,CLR,,0.00,WeatherDisplay:10.37,2013-08-28 08:05:00,
2013-08-28 03:10:00,70.5,61.4,29.99,North,1,0.0,0.0,73,0.00,CLR,,0.00,WeatherDisplay:10.37,2013-08-28 08:10:00,
2013-08-28 03:15:00,70.5,61.4,29.99,North,1,0.0,0.0,73,0.00,CLR,,0.00,WeatherDisplay:10.37,2013-08-28 08:15:00,
2013-08-28 03:20:00,70.5,61.4,29.99,North,1,0.0,0.0,73,0.00,CLR,,0.00,WeatherDisplay:10.37,2013-08-28 08:20:00,
2013-08-28 03:25:00,70.5,61.4,29.99,North,1,0.0,0.0,73,0.00,CLR,,0.00,WeatherDisplay:10.37,2013-08-28 08:25:00,
2013-08-28 03:30:00,70.5,61.4,29.99,North,1,0.0,0.0,73,0.00,CLR,,0.00,WeatherDisplay:10.37,2013-08-28 08:30:00,
2013-08-28 03:35:00,70.5,61.4,29.99,North,1,0.0,0.0,73,0.00,CLR,,0.00,WeatherDisplay:10.37,2013-08-28 08:35:00,
2013-08-28 03:40:00,70.5,61.4,29.99,North,1,0.0,0.0,73,0.00,CLR,,0.00,WeatherDisplay:10.37,2013-08-28 08:40:00,
2013-08-28 03:45:00,70.5,61.4,29.99,North,1,0.0,0.0,73,0.00,CLR,,0.00,WeatherDisplay:10.37,2013-08-28 08:45:00,
2013-08-28 03:50:00,70.2,61.1,29.99,North,1,0.0,0.0,73,0.00,CLR,,0.00,WeatherDisplay:10.37,2013-08-28 08:50:00,
2013-08-28 03:55:00,70.3,61.3,29.99,North,1,0.0,0.0,73,0.00,CLR,,0.00,WeatherDisplay:10.37,2013-08-28 08:55:00,
2013-08-28 04:00:00,70.2,61.1,29.99,North,1,0.0,0.0,73,0.00,CLR,,0.00,WeatherDisplay:10.37,2013-08-28 09:00:00,
2013-08-28 04:05:00,70.2,61.5,29.99,North,1,0.0,0.0,74,0.00,CLR,,0.00,WeatherDisplay:10.37,2013-08-28 09:05:00,
2013-08-28 04:10:00,70.2,61.5,29.99,North,1,0.0,0.0,74,0.00,CLR,,0.00,WeatherDisplay:10.37,2013-08-28 09:10:00,
2013-08-28 04:15:00,70.2,61.5,29.99,North,1,0.0,0.0,74,0.00,CLR,,0.00,WeatherDisplay:10.37,2013-08-28 09:15:00,
2013-08-28 04:20:00,70.2,61.5,29.99,North,1,0.0,0.0,74,0.00,CLR,,0.00,WeatherDisplay:10.37,2013-08-28 09:20:00,
2013-08-28 04:25:00,70.2,61.9,30.00,North,1,0.0,0.0,75,0.00,CLR,,0.00,WeatherDisplay:10.37,2013-08-28 09:25:00,
2013-08-28 04:30:00,70.2,61.9,30.00,North,1,0.0,0.0,75,0.00,CLR,,0.00,WeatherDisplay:10.37,2013-08-28 09:30:00,
2013-08-28 04:34:00,70.0,61.7,30.00,North,1,0.0,0.0,75,0.00,CLR,,0.00,WeatherDisplay:10.37,2013-08-28 09:34:00,
2013-08-28 04:39:00,70.0,61.7,29.99,North,1,0.0,0.0,75,0.00,CLR,,0.00,WeatherDisplay:10.37,2013-08-28 09:39:00,
2013-08-28 04:44:00,70.0,61.7,30.00,North,1,0.0,0.0,75,0.00,CLR,,0.00,WeatherDisplay:10.37,2013-08-28 09:44:00,
2013-08-28 04:49:00,70.0,62.1,30.00,North,1,0.0,0.0,76,0.00,CLR,,0.00,WeatherDisplay:10.37,2013-08-28 09:49:00,
2013-08-28 04:54:00,70.0,62.1,30.00,North,1,0.0,0.0,76,0.00,CLR,,0.00,WeatherDisplay:10.37,2013-08-28 09:54:00,
2013-08-28 04:59:00,70.0,62.1,30.00,North,1,0.0,0.0,76,0.00,CLR,,0.00,WeatherDisplay:10.37,2013-08-28 09:59:00,
2013-08-28 05:04:00,70.0,62.1,30.00,North,1,0.0,0.0,76,0.00,CLR,,0.00,WeatherDisplay:10.37,2013-08-28 10:04:00,
2013-08-28 05:09:00,70.0,62.4,30.00,North,1,0.0,0.0,77,0.00,CLR,,0.00,WeatherDisplay:10.37,2013-08-28 10:09:00,
2013-08-28 05:14:00,69.8,62.3,30.00,North,1,0.0,0.0,77,0.00,CLR,,0.00,WeatherDisplay:10.37,2013-08-28 10:14:00,
2013-08-28 05:19:00,69.6,62.1,30.00,North,1,0.0,0.0,77,0.00,CLR,,0.00,WeatherDisplay:10.37,2013-08-28 10:19:00,
2013-08-28 05:24:00,69.6,62.1,30.00,North,1,0.0,0.0,77,0.00,CLR,,0.00,WeatherDisplay:10.37,2013-08-28 10:24:00,
2013-08-28 05:29:00,69.6,62.1,30.00,North,1,0.0,0.0,77,0.00,CLR,,0.00,WeatherDisplay:10.37,2013-08-28 10:29:00,
2013-08-28 05:34:00,69.6,62.5,30.00,North,1,0.0,0.0,78,0.00,CLR,,0.00,WeatherDisplay:10.37,2013-08-28 10:34:00,
2013-08-28 05:39:00,69.6,62.5,30.00,North,1,0.0,0.0,78,0.00,CLR,,0.00,WeatherDisplay:10.37,2013-08-28 10:39:00,
2013-08-28 05:44:00,69.4,62.3,30.00,North,1,0.0,0.0,78,0.00,CLR,,0.00,WeatherDisplay:10.37,2013-08-28 10:44:00,
2013-08-28 05:49:00,69.4,62.3,30.00,North,1,0.0,0.0,78,0.00,CLR,,0.00,WeatherDisplay:10.37,2013-08-28 10:49:00,
2013-08-28 05:54:00,69.4,62.3,30.00,North,1,0.0,0.0,78,0.00,CLR,,0.00,WeatherDisplay:10.37,2013-08-28 10:54:00,
2013-08-28 05:59:00,69.3,62.1,30.00,North,1,0.0,0.0,78,0.00,CLR,,0.00,WeatherDisplay:10.37,2013-08-28 10:59:00,
2013-08-28 06:04:00,69.3,62.1,30.00,North,1,0.0,0.0,78,0.00,CLR,,0.00,WeatherDisplay:10.37,2013-08-28 11:04:00,
2013-08-28 06:09:00,69.3,62.1,30.01,North,1,0.0,0.0,78,0.00,CLR,,0.00,WeatherDisplay:10.37,2013-08-28 11:09:00,
2013-08-28 06:14:00,69.3,62.5,30.01,North,1,0.0,0.0,79,0.00,CLR,,0.00,WeatherDisplay:10.37,2013-08-28 11:14:00,
2013-08-28 06:19:00,69.3,62.5,30.01,North,1,0.0,0.0,79,0.00,CLR,,0.00,WeatherDisplay:10.37,2013-08-28 11:19:00,
2013-08-28 06:24:00,69.3,62.5,30.01,North,1,0.0,0.0,79,0.00,CLR,,0.00,WeatherDisplay:10.37,2013-08-28 11:24:00,
2013-08-28 06:29:00,69.3,62.5,30.01,North,1,0.0,0.0,79,0.00,CLR,,0.00,WeatherDisplay:10.37,2013-08-28 11:29:00,
2013-08-28 06:34:00,69.1,62.3,30.01,North,1,0.0,0.0,79,0.00,CLR,,0.00,WeatherDisplay:10.37,2013-08-28 11:34:00,
2013-08-28 06:39:00,69.1,62.3,30.01,North,1,0.0,0.0,79,0.00,CLR,,0.00,WeatherDisplay:10.37,2013-08-28 11:39:00,
2013-08-28 06:44:00,69.1,62.6,30.02,North,1,0.0,0.0,80,0.00,CLR,,0.00,WeatherDisplay:10.37,2013-08-28 11:44:00,
2013-08-28 06:49:00,69.1,62.6,30.02,North,1,0.0,0.0,80,0.00,CLR,,0.00,WeatherDisplay:10.37,2013-08-28 11:49:00,
2013-08-28 06:54:00,69.1,62.6,30.02,North,1,0.0,0.0,80,0.00,CLR,,0.00,WeatherDisplay:10.37,2013-08-28 11:54:00,
2013-08-28 06:59:00,69.1,62.6,30.03,North,1,0.0,0.0,80,0.00,CLR,,0.00,WeatherDisplay:10.37,2013-08-28 11:59:00,
2013-08-28 07:04:00,69.1,62.6,30.03,North,1,0.0,0.0,80,0.00,CLR,,0.00,WeatherDisplay:10.37,2013-08-28 12:04:00,
2013-08-28 07:09:00,69.1,62.6,30.03,North,1,0.0,0.0,80,0.00,CLR,,0.00,WeatherDisplay:10.37,2013-08-28 12:09:00,
2013-08-28 07:14:00,68.9,62.5,30.03,North,1,0.0,0.0,80,0.00,CLR,,0.00,WeatherDisplay:10.37,2013-08-28 12:14:00,
2013-08-28 07:19:00,69.1,62.6,30.03,North,1,0.0,0.0,80,0.00,CLR,,0.00,WeatherDisplay:10.37,2013-08-28 12:19:00,
2013-08-28 07:24:00,69.1,63.0,30.03,North,1,0.0,0.0,81,0.00,CLR,,0.00,WeatherDisplay:10.37,2013-08-28 12:24:00,
2013-08-28 07:29:00,69.1,63.0,30.03,North,1,0.0,0.0,81,0.00,CLR,,0.00,WeatherDisplay:10.37,2013-08-28 12:29:00,
2013-08-28 07:34:00,69.3,63.2,30.03,North,1,0.0,0.0,81,0.00,CLR,,0.00,WeatherDisplay:10.37,2013-08-28 12:34:00,
2013-08-28 07:39:00,69.4,63.4,30.03,North,1,0.0,0.0,81,0.00,CLR,,0.00,WeatherDisplay:10.37,2013-08-28 12:39:00,
2013-08-28 07:44:00,69.6,63.5,30.03,North,1,0.0,0.0,81,0.00,CLR,,0.00,WeatherDisplay:10.37,2013-08-28 12:44:00,
2013-08-28 07:49:00,69.6,63.5,30.03,North,1,0.0,0.0,81,0.00,CLR,,0.00,WeatherDisplay:10.37,2013-08-28 12:49:00,
2013-08-28 07:54:00,70.0,63.9,30.04,North,1,0.0,0.0,81,0.00,CLR,,0.00,WeatherDisplay:10.37,2013-08-28 12:54:00,
2013-08-28 07:59:00,70.2,64.1,30.03,North,1,0.0,0.0,81,0.00,CLR,,0.00,WeatherDisplay:10.37,2013-08-28 12:59:00,
2013-08-28 08:04:00,70.3,64.2,30.04,North,1,0.0,0.0,81,0.00,CLR,,0.00,WeatherDisplay:10.37,2013-08-28 13:04:00,
2013-08-28 08:09:00,70.5,64.4,30.04,North,1,0.0,0.0,81,0.00,CLR,,0.00,WeatherDisplay:10.37,2013-08-28 13:09:00,
2013-08-28 08:14:00,70.9,64.8,30.04,North,1,0.0,0.0,81,0.00,CLR,,0.00,WeatherDisplay:10.37,2013-08-28 13:14:00,
2013-08-28 08:19:00,71.1,64.6,30.04,North,1,0.0,0.0,80,0.00,CLR,,0.00,WeatherDisplay:10.37,2013-08-28 13:19:00,
2013-08-28 08:24:00,71.6,65.1,30.04,North,1,0.0,0.0,80,0.00,CLR,,0.00,WeatherDisplay:10.37,2013-08-28 13:24:00,
2013-08-28 08:29:00,72.0,65.5,30.04,North,1,0.0,0.0,80,0.00,CLR,,0.00,WeatherDisplay:10.37,2013-08-28 13:29:00,
2013-08-28 08:34:00,72.5,66.0,30.04,North,1,0.0,0.0,80,0.00,CLR,,0.00,WeatherDisplay:10.37,2013-08-28 13:34:00,
2013-08-28 08:39:00,73.4,66.1,30.04,North,1,0.0,0.0,78,0.00,CLR,,0.00,WeatherDisplay:10.37,2013-08-28 13:39:00,
2013-08-28 08:44:00,73.9,66.6,30.04,North,1,0.0,0.0,78,0.00,CLR,,0.00,WeatherDisplay:10.37,2013-08-28 13:44:00,
2013-08-28 08:49:00,74.7,67.0,30.04,North,1,0.0,0.0,77,0.00,CLR,,0.00,WeatherDisplay:10.37,2013-08-28 13:49:00,
2013-08-28 08:54:00,75.9,67.8,30.04,North,1,0.0,0.0,76,0.00,CLR,,0.00,WeatherDisplay:10.37,2013-08-28 13:54:00,
2013-08-28 08:59:00,76.6,67.7,30.04,North,1,0.0,0.0,74,0.00,CLR,,0.00,WeatherDisplay:10.37,2013-08-28 13:59:00,
2013-08-28 09:04:00,77.4,68.4,30.04,North,1,0.0,0.0,74,0.00,CLR,,0.00,WeatherDisplay:10.37,2013-08-28 14:04:00,
2013-08-28 09:09:00,79.0,69.2,30.04,North,1,0.0,0.0,72,0.00,CLR,,0.00,WeatherDisplay:10.37,2013-08-28 14:09:00,
2013-08-28 09:14:00,79.9,69.2,30.04,North,1,0.0,0.0,70,0.00,CLR,,0.00,WeatherDisplay:10.37,2013-08-28 14:14:00,
2013-08-28 09:19:00,80.8,69.7,30.04,North,1,0.0,0.0,69,0.00,CLR,,0.00,WeatherDisplay:10.37,2013-08-28 14:19:00,
2013-08-28 09:24:00,82.0,70.0,30.04,North,1,0.0,0.0,67,0.00,CLR,,0.00,WeatherDisplay:10.37,2013-08-28 14:24:00,
2013-08-28 09:29:00,82.8,69.8,30.04,North,1,0.0,0.0,65,0.00,CLR,,0.00,WeatherDisplay:10.37,2013-08-28 14:29:00,
2013-08-28 09:34:00,83.5,70.0,30.04,North,1,0.0,0.0,64,0.00,CLR,,0.00,WeatherDisplay:10.37,2013-08-28 14:34:00,
2013-08-28 09:39:00,84.6,70.6,30.04,North,1,0.0,0.0,63,0.00,CLR,,0.00,WeatherDisplay:10.37,2013-08-28 14:39:00,
2013-08-28 09:44:00,85.3,70.8,30.04,North,1,0.0,0.0,62,0.00,CLR,,0.00,WeatherDisplay:10.37,2013-08-28 14:44:00,
2013-08-28 09:49:00,85.8,70.8,30.04,North,1,0.0,0.0,61,0.00,CLR,,0.00,WeatherDisplay:10.37,2013-08-28 14:49:00,
2013-08-28 09:54:00,87.1,71.5,30.04,North,1,0.0,0.0,60,0.00,CLR,,0.00,WeatherDisplay:10.37,2013-08-28 14:54:00,
2013-08-28 09:59:00,87.6,71.5,30.04,North,1,0.0,0.0,59,0.00,CLR,,0.00,WeatherDisplay:10.37,2013-08-28 14:59:00,
2013-08-28 10:04:00,88.2,71.0,30.04,North,1,0.0,0.0,57,0.00,CLR,,0.00,WeatherDisplay:10.37,2013-08-28 15:04:00,
2013-08-28 10:09:00,88.7,71.5,30.04,North,1,0.0,0.0,57,0.00,CLR,,0.00,WeatherDisplay:10.37,2013-08-28 15:09:00,
2013-08-28 10:14:00,89.1,71.3,30.04,North,1,0.0,0.0,56,0.00,CLR,,0.00,WeatherDisplay:10.37,2013-08-28 15:14:00,
2013-08-28 10:19:00,89.1,70.8,30.04,North,1,0.0,0.0,55,0.00,CLR,,0.00,WeatherDisplay:10.37,2013-08-28 15:19:00,
2013-08-28 10:24:00,88.9,70.6,30.04,North,1,0.0,0.0,55,0.00,CLR,,0.00,WeatherDisplay:10.37,2013-08-28 15:24:00,
2013-08-28 10:29:00,89.4,70.6,30.04,North,1,0.0,0.0,54,0.00,CLR,,0.00,WeatherDisplay:10.37,2013-08-28 15:29:00,
2013-08-28 11:17:00,92.8,70.9,30.05,North,1,0.0,0.0,49,0.00,CLR,,0.00,WeatherDisplay:10.37,2013-08-28 16:17:00,
2013-08-28 11:22:00,93.2,71.2,30.05,North,1,0.0,0.0,49,0.00,CLR,,0.00,WeatherDisplay:10.37,2013-08-28 16:22:00,
2013-08-28 11:27:00,93.4,70.8,30.04,North,1,0.0,0.0,48,0.00,CLR,,0.00,WeatherDisplay:10.37,2013-08-28 16:27:00,
2013-08-28 11:32:00,93.6,70.9,30.05,North,1,0.0,0.0,48,0.00,CLR,,0.00,WeatherDisplay:10.37,2013-08-28 16:32:00,
2013-08-28 11:37:00,93.9,71.2,30.04,North,1,0.0,0.0,48,0.00,CLR,,0.00,WeatherDisplay:10.37,2013-08-28 16:37:00,
2013-08-28 11:42:00,94.3,71.6,30.05,North,1,0.0,0.0,48,0.00,CLR,,0.00,WeatherDisplay:10.37,2013-08-28 16:42:00,
2013-08-28 11:47:00,94.8,71.4,30.05,North,1,0.0,0.0,47,0.00,CLR,,0.00,WeatherDisplay:10.37,2013-08-28 16:47:00,
2013-08-28 11:52:00,94.8,71.4,30.05,North,1,0.0,0.0,47,0.00,CLR,,0.00,WeatherDisplay:10.37,2013-08-28 16:52:00,
2013-08-28 11:57:00,95.4,71.9,30.05,North,1,0.0,0.0,47,0.00,CLR,,0.00,WeatherDisplay:10.37,2013-08-28 16:57:00,
2013-08-28 12:02:00,95.4,70.0,30.04,North,1,0.0,0.0,44,0.00,CLR,,0.00,WeatherDisplay:10.37,2013-08-28 17:02:00,
2013-08-28 12:07:00,95.2,70.5,30.04,North,1,0.0,0.0,45,0.00,CLR,,0.00,WeatherDisplay:10.37,2013-08-28 17:07:00,
2013-08-28 12:12:00,94.8,70.8,30.04,North,1,0.0,0.0,46,0.00,CLR,,0.00,WeatherDisplay:10.37,2013-08-28 17:12:00,
2013-08-28 12:17:00,95.0,71.0,30.04,North,1,0.0,0.0,46,0.00,CLR,,0.00,WeatherDisplay:10.37,2013-08-28 17:17:00,
2013-08-28 12:22:00,95.4,71.3,30.04,North,1,0.0,0.0,46,0.00,CLR,,0.00,WeatherDisplay:10.37,2013-08-28 17:22:00,
2013-08-28 12:27:00,95.7,71.6,30.04,North,1,0.0,0.0,46,0.00,CLR,,0.00,WeatherDisplay:10.37,2013-08-28 17:27:00,
2013-08-28 12:32:00,96.1,71.3,30.04,North,1,0.0,0.0,45,0.00,CLR,,0.00,WeatherDisplay:10.37,2013-08-28 17:32:00,
2013-08-28 12:37:00,96.1,71.3,30.04,North,1,0.0,0.0,45,0.00,CLR,,0.00,WeatherDisplay:10.37,2013-08-28 17:37:00,
2013-08-28 12:42:00,96.3,71.5,30.04,North,1,0.0,0.0,45,0.00,CLR,,0.00,WeatherDisplay:10.37,2013-08-28 17:42:00,
2013-08-28 12:47:00,96.3,70.1,30.04,North,1,0.0,0.0,43,0.00,CLR,,0.00,WeatherDisplay:10.37,2013-08-28 17:47:00,
2013-08-28 12:52:00,95.7,69.6,30.04,North,1,0.0,0.0,43,0.00,CLR,,0.00,WeatherDisplay:10.37,2013-08-28 17:52:00,
2013-08-28 12:57:00,95.9,70.5,30.04,North,1,0.0,0.0,44,0.00,CLR,,0.00,WeatherDisplay:10.37,2013-08-28 17:57:00,
2013-08-28 13:02:00,96.4,70.3,30.03,North,1,0.0,0.0,43,0.00,CLR,,0.00,WeatherDisplay:10.37,2013-08-28 18:02:00,
2013-08-28 13:07:00,96.6,70.5,30.03,North,1,0.0,0.0,43,0.00,CLR,,0.00,WeatherDisplay:10.37,2013-08-28 18:07:00,
2013-08-28 13:12:00,96.8,70.6,30.03,North,1,0.0,0.0,43,0.00,CLR,,0.00,WeatherDisplay:10.37,2013-08-28 18:12:00,
2013-08-28 13:17:00,97.0,71.5,30.03,North,1,0.0,0.0,44,0.00,CLR,,0.00,WeatherDisplay:10.37,2013-08-28 18:17:00,
2013-08-28 13:22:00,97.2,70.9,30.03,North,1,0.0,0.0,43,0.00,CLR,,0.00,WeatherDisplay:10.37,2013-08-28 18:22:00,
2013-08-28 13:27:00,97.2,70.2,30.03,North,1,0.0,0.0,42,0.00,CLR,,0.00,WeatherDisplay:10.37,2013-08-28 18:27:00,
2013-08-28 13:32:00,97.2,70.2,30.03,North,1,0.0,0.0,42,0.00,CLR,,0.00,WeatherDisplay:10.37,2013-08-28 18:32:00,
2013-08-28 13:37:00,97.2,70.2,30.02,North,1,0.0,0.0,42,0.00,CLR,,0.00,WeatherDisplay:10.37,2013-08-28 18:37:00,
2013-08-28 13:42:00,97.2,70.2,30.03,North,1,0.0,0.0,42,0.00,CLR,,0.00,WeatherDisplay:10.37,2013-08-28 18:42:00,
2013-08-28 13:47:00,97.2,70.2,30.02,North,1,0.0,0.0,42,0.00,CLR,,0.00,WeatherDisplay:10.37,2013-08-28 18:47:00,
2013-08-28 13:52:00,96.6,70.5,30.02,North,1,0.0,0.0,43,0.00,CLR,,0.00,WeatherDisplay:10.37,2013-08-28 18:52:00,
2013-08-28 13:57:00,95.9,69.8,30.02,North,1,0.0,0.0,43,0.00,CLR,,0.00,WeatherDisplay:10.37,2013-08-28 18:57:00,
2013-08-28 14:02:00,95.4,69.3,30.02,North,1,0.0,0.0,43,0.00,CLR,,0.00,WeatherDisplay:10.37,2013-08-28 19:02:00,
2013-08-28 14:07:00,95.4,70.0,30.02,North,1,0.0,0.0,44,0.00,CLR,,0.00,WeatherDisplay:10.37,2013-08-28 19:07:00,
2013-08-28 14:12:00,95.4,69.3,30.02,North,1,0.0,0.0,43,0.00,CLR,,0.00,WeatherDisplay:10.37,2013-08-28 19:12:00,
2013-08-28 14:17:00,95.5,69.5,30.02,North,1,0.0,0.0,43,0.00,CLR,,0.00,WeatherDisplay:10.37,2013-08-28 19:17:00,
2013-08-28 14:22:00,95.2,69.2,30.02,North,1,0.0,0.0,43,0.00,CLR,,0.00,WeatherDisplay:10.37,2013-08-28 19:22:00,
2013-08-28 14:27:00,95.2,69.8,30.01,North,1,0.0,0.0,44,0.00,CLR,,0.00,WeatherDisplay:10.37,2013-08-28 19:27:00,
2013-08-28 14:32:00,95.2,69.8,30.01,North,1,0.0,0.0,44,0.00,CLR,,0.00,WeatherDisplay:10.37,2013-08-28 19:32:00,
2013-08-28 14:37:00,95.2,69.8,30.01,North,1,0.0,0.0,44,0.00,CLR,,0.00,WeatherDisplay:10.37,2013-08-28 19:37:00,
2013-08-28 14:42:00,95.4,70.0,30.01,North,1,0.0,0.0,44,0.00,CLR,,0.00,WeatherDisplay:10.37,2013-08-28 19:42:00,
2013-08-28 14:47:00,95.4,70.0,30.01,North,1,0.0,0.0,44,0.00,CLR,,0.00,WeatherDisplay:10.37,2013-08-28 19:47:00,
2013-08-28 14:52:00,95.4,70.0,30.01,North,1,0.0,0.0,44,0.00,CLR,,0.00,WeatherDisplay:10.37,2013-08-28 19:52:00,
2013-08-28 14:57:00,94.6,68.7,30.01,North,1,0.0,0.0,43,0.00,CLR,,0.00,WeatherDisplay:10.37,2013-08-28 19:57:00,
2013-08-28 15:02:00,94.5,69.2,30.01,North,1,0.0,0.0,44,0.00,CLR,,0.00,WeatherDisplay:10.37,2013-08-28 20:02:00,
2013-08-28 15:07:00,94.6,69.3,30.00,North,1,0.0,0.0,44,0.00,CLR,,0.00,WeatherDisplay:10.37,2013-08-28 20:07:00,
2013-08-28 15:12:00,94.1,68.9,30.00,North,1,0.0,0.0,44,0.00,CLR,,0.00,WeatherDisplay:10.37,2013-08-28 20:12:00,
2013-08-28 15:17:00,93.6,69.0,30.00,North,1,0.0,0.0,45,0.00,CLR,,0.00,WeatherDisplay:10.37,2013-08-28 20:17:00,
2013-08-28 15:22:00,93.4,68.9,30.00,North,1,0.0,0.0,45,0.00,CLR,,0.00,WeatherDisplay:10.37,2013-08-28 20:22:00,
2013-08-28 15:27:00,93.6,69.0,30.00,North,1,0.0,0.0,45,0.00,CLR,,0.00,WeatherDisplay:10.37,2013-08-28 20:27:00,
2013-08-28 15:32:00,93.9,69.4,30.00,North,1,0.0,0.0,45,0.00,CLR,,0.00,WeatherDisplay:10.37,2013-08-28 20:32:00,
2013-08-28 15:37:00,93.6,69.0,30.00,North,1,0.0,0.0,45,0.00,CLR,,0.00,WeatherDisplay:10.37,2013-08-28 20:37:00,
2013-08-28 15:42:00,93.4,68.9,30.00,North,1,0.0,0.0,45,0.00,CLR,,0.00,WeatherDisplay:10.37,2013-08-28 20:42:00,
2013-08-28 15:47:00,93.0,68.5,30.00,North,1,0.0,0.0,45,0.00,CLR,,0.00,WeatherDisplay:10.37,2013-08-28 20:47:00,
2013-08-28 15:52:00,92.7,68.2,30.00,North,1,0.0,0.0,45,0.00,CLR,,0.00,WeatherDisplay:10.37,2013-08-28 20:52:00,
2013-08-28 15:57:00,92.1,68.4,30.00,North,1,0.0,0.0,46,0.00,CLR,,0.00,WeatherDisplay:10.37,2013-08-28 20:57:00,
2013-08-28 16:02:00,91.6,67.9,30.00,North,1,0.0,0.0,46,0.00,CLR,,0.00,WeatherDisplay:10.37,2013-08-28 21:02:00,
2013-08-28 16:07:00,92.1,69.0,30.00,North,1,0.0,0.0,47,0.00,CLR,,0.00,WeatherDisplay:10.37,2013-08-28 21:07:00,
2013-08-28 16:12:00,92.1,68.4,30.00,North,1,0.0,0.0,46,0.00,CLR,,0.00,WeatherDisplay:10.37,2013-08-28 21:12:00,
2013-08-28 16:17:00,91.6,67.9,29.99,North,1,0.0,0.0,46,0.00,CLR,,0.00,WeatherDisplay:10.37,2013-08-28 21:17:00,
2013-08-28 16:22:00,91.6,68.5,30.00,North,1,0.0,0.0,47,0.00,CLR,,0.00,WeatherDisplay:10.37,2013-08-28 21:22:00,
2013-08-28 16:27:00,91.9,68.8,29.99,North,1,0.0,0.0,47,0.00,CLR,,0.00,WeatherDisplay:10.37,2013-08-28 21:27:00,
2013-08-28 16:32:00,92.1,68.4,29.99,North,1,0.0,0.0,46,0.00,CLR,,0.00,WeatherDisplay:10.37,2013-08-28 21:32:00,
2013-08-28 16:37:00,92.5,68.7,29.99,North,1,0.0,0.0,46,0.00,CLR,,0.00,WeatherDisplay:10.37,2013-08-28 21:37:00,
2013-08-28 16:42:00,92.3,67.9,30.00,North,1,0.0,0.0,45,0.00,CLR,,0.00,WeatherDisplay:10.37,2013-08-28 21:42:00,
2013-08-28 16:47:00,91.6,67.9,30.00,North,1,0.0,0.0,46,0.00,CLR,,0.00,WeatherDisplay:10.37,2013-08-28 21:47:00,
2013-08-28 16:52:00,90.9,67.2,30.00,North,1,0.0,0.0,46,0.00,CLR,,0.00,WeatherDisplay:10.37,2013-08-28 21:52:00,
2013-08-28 16:57:00,90.5,67.5,29.99,North,1,0.0,0.0,47,0.00,CLR,,0.00,WeatherDisplay:10.37,2013-08-28 21:57:00,
2013-08-28 17:02:00,90.7,67.7,29.99,North,1,0.0,0.0,47,0.00,CLR,,0.00,WeatherDisplay:10.37,2013-08-28 22:02:00,
2013-08-28 17:07:00,90.9,67.8,29.99,North,1,0.0,0.0,47,0.00,CLR,,0.00,WeatherDisplay:10.37,2013-08-28 22:07:00,
2013-08-28 17:12:00,91.2,68.2,29.99,North,1,0.0,0.0,47,0.00,CLR,,0.00,WeatherDisplay:10.37,2013-08-28 22:12:00,
2013-08-28 17:17:00,91.6,68.5,29.99,North,1,0.0,0.0,47,0.00,CLR,,0.00,WeatherDisplay:10.37,2013-08-28 22:17:00,
2013-08-28 17:22:00,91.8,68.0,29.99,North,1,0.0,0.0,46,0.00,CLR,,0.00,WeatherDisplay:10.37,2013-08-28 22:22:00,
2013-08-28 17:27:00,91.8,68.0,29.99,North,1,0.0,0.0,46,0.00,CLR,,0.00,WeatherDisplay:10.37,2013-08-28 22:27:00,
2013-08-28 17:32:00,91.6,68.5,29.99,North,1,0.0,0.0,47,0.00,CLR,,0.00,WeatherDisplay:10.37,2013-08-28 22:32:00,
2013-08-28 17:37:00,91.8,68.7,29.99,North,1,0.0,0.0,47,0.00,CLR,,0.00,WeatherDisplay:10.37,2013-08-28 22:37:00,
2013-08-28 17:42:00,91.8,68.7,29.99,North,1,0.0,0.0,47,0.00,CLR,,0.00,WeatherDisplay:10.37,2013-08-28 22:42:00,
2013-08-28 17:47:00,91.2,67.5,29.99,North,1,0.0,0.0,46,0.00,CLR,,0.00,WeatherDisplay:10.37,2013-08-28 22:47:00,
2013-08-28 17:52:00,90.9,67.8,29.99,North,1,0.0,0.0,47,0.00,CLR,,0.00,WeatherDisplay:10.37,2013-08-28 22:52:00,
2013-08-28 17:57:00,90.7,67.7,29.99,North,1,0.0,0.0,47,0.00,CLR,,0.00,WeatherDisplay:10.37,2013-08-28 22:57:00,
2013-08-28 18:02:00,90.7,67.7,29.99,North,1,0.0,0.0,47,0.00,CLR,,0.00,WeatherDisplay:10.37,2013-08-28 23:02:00,
2013-08-28 18:07:00,90.0,67.6,29.99,North,1,0.0,0.0,48,0.00,CLR,,0.00,WeatherDisplay:10.37,2013-08-28 23:07:00,
2013-08-28 18:12:00,90.0,67.6,29.99,North,1,0.0,0.0,48,0.00,CLR,,0.00,WeatherDisplay:10.37,2013-08-28 23:12:00,
2013-08-28 18:17:00,89.8,67.5,29.99,North,1,0.0,0.0,48,0.00,CLR,,0.00,WeatherDisplay:10.37,2013-08-28 23:17:00,
2013-08-28 18:22:00,89.6,67.9,29.99,North,1,0.0,0.0,49,0.00,CLR,,0.00,WeatherDisplay:10.37,2013-08-28 23:22:00,
2013-08-28 18:27:00,89.4,67.7,29.99,North,1,0.0,0.0,49,0.00,CLR,,0.00,WeatherDisplay:10.37,2013-08-28 23:27:00,
2013-08-28 18:32:00,89.1,67.4,29.99,North,1,0.0,0.0,49,0.00,CLR,,0.00,WeatherDisplay:10.37,2013-08-28 23:32:00,
2013-08-28 18:37:00,89.1,68.0,29.99,North,1,0.0,0.0,50,0.00,CLR,,0.00,WeatherDisplay:10.37,2013-08-28 23:37:00,
2013-08-28 18:42:00,88.7,67.7,30.00,North,1,0.0,0.0,50,0.00,CLR,,0.00,WeatherDisplay:10.37,2013-08-28 23:42:00,
2013-08-28 18:47:00,88.2,67.8,29.99,North,1,0.0,0.0,51,0.00,CLR,,0.00,WeatherDisplay:10.37,2013-08-28 23:47:00,
2013-08-28 18:52:00,88.0,67.6,30.00,North,1,0.0,0.0,51,0.00,CLR,,0.00,WeatherDisplay:10.37,2013-08-28 23:52:00,
2013-08-28 18:57:00,87.6,67.3,29.99,North,1,0.0,0.0,51,0.00,CLR,,0.00,WeatherDisplay:10.37,2013-08-28 23:57:00,
2013-08-28 19:02:00,87.3,67.5,29.99,North,1,0.0,0.0,52,0.00,CLR,,0.00,WeatherDisplay:10.37,2013-08-29 00:02:00,
2013-08-28 19:07:00,87.1,67.3,29.99,North,1,0.0,0.0,52,0.00,CLR,,0.00,WeatherDisplay:10.37,2013-08-29 00:07:00,
2013-08-28 19:12:00,87.1,67.3,29.99,North,1,0.0,0.0,52,0.00,CLR,,0.00,WeatherDisplay:10.37,2013-08-29 00:12:00,
2013-08-28 19:17:00,86.7,67.0,30.00,North,1,0.0,0.0,52,0.00,CLR,,0.00,WeatherDisplay:10.37,2013-08-29 00:17:00,
2013-08-28 19:22:00,86.7,67.0,29.99,North,1,0.0,0.0,52,0.00,CLR,,0.00,WeatherDisplay:10.37,2013-08-29 00:22:00,
2013-08-28 19:27:00,86.4,67.2,30.00,North,1,0.0,0.0,53,0.00,CLR,,0.00,WeatherDisplay:10.37,2013-08-29 00:27:00,
2013-08-28 19:32:00,86.2,67.0,29.99,North,1,0.0,0.0,53,0.00,CLR,,0.00,WeatherDisplay:10.37,2013-08-29 00:32:00,
2013-08-28 19:37:00,85.8,66.7,29.99,North,1,0.0,0.0,53,0.00,CLR,,0.00,WeatherDisplay:10.37,2013-08-29 00:37:00,
2013-08-28 19:42:00,85.8,67.3,30.00,North,1,0.0,0.0,54,0.00,CLR,,0.00,WeatherDisplay:10.37,2013-08-29 00:42:00,
2013-08-28 19:47:00,85.3,66.8,30.00,North,1,0.0,0.0,54,0.00,CLR,,0.00,WeatherDisplay:10.37,2013-08-29 00:47:00,
2013-08-28 19:52:00,85.1,66.6,30.00,North,1,0.0,0.0,54,0.00,CLR,,0.00,WeatherDisplay:10.37,2013-08-29 00:52:00,
2013-08-28 19:57:00,84.6,66.1,30.00,North,1,0.0,0.0,54,0.00,CLR,,0.00,WeatherDisplay:10.37,2013-08-29 00:57:00,
2013-08-28 20:02:00,84.6,66.6,30.00,North,1,0.0,0.0,55,0.00,CLR,,0.00,WeatherDisplay:10.37,2013-08-29 01:02:00,
2013-08-28 20:07:00,84.4,67.0,30.00,North,1,0.0,0.0,56,0.00,CLR,,0.00,WeatherDisplay:10.37,2013-08-29 01:07:00,
2013-08-28 20:12:00,84.0,66.6,29.99,North,1,0.0,0.0,56,0.00,CLR,,0.00,WeatherDisplay:10.37,2013-08-29 01:12:00,
2013-08-28 20:17:00,83.7,66.3,29.99,North,1,0.0,0.0,56,0.00,CLR,,0.00,WeatherDisplay:10.37,2013-08-29 01:17:00,
2013-08-28 20:22:00,83.7,66.8,30.00,North,1,0.0,0.0,57,0.00,CLR,,0.00,WeatherDisplay:10.37,2013-08-29 01:22:00,
2013-08-28 20:27:00,83.3,66.5,29.99,North,1,0.0,0.0,57,0.00,CLR,,0.00,WeatherDisplay:10.37,2013-08-29 01:27:00,
2013-08-28 20:32:00,83.1,66.8,30.00,North,1,0.0,0.0,58,0.00,CLR,,0.00,WeatherDisplay:10.37,2013-08-29 01:32:00,
2013-08-28 20:37:00,82.8,66.5,30.00,North,1,0.0,0.0,58,0.00,CLR,,0.00,WeatherDisplay:10.37,2013-08-29 01:37:00,
2013-08-28 20:42:00,82.8,66.5,30.01,North,1,0.0,0.0,58,0.00,CLR,,0.00,WeatherDisplay:10.37,2013-08-29 01:42:00,
2013-08-28 20:47:00,82.6,66.8,30.00,North,1,0.0,0.0,59,0.00,CLR,,0.00,WeatherDisplay:10.37,2013-08-29 01:47:00,
2013-08-28 20:52:00,82.2,66.5,30.00,North,1,0.0,0.0,59,0.00,CLR,,0.00,WeatherDisplay:10.37,2013-08-29 01:52:00,
2013-08-28 20:57:00,82.0,66.3,30.01,North,1,0.0,0.0,59,0.00,CLR,,0.00,WeatherDisplay:10.37,2013-08-29 01:57:00,
2013-08-28 21:02:00,81.9,66.6,30.01,North,1,0.0,0.0,60,0.00,CLR,,0.00,WeatherDisplay:10.37,2013-08-29 02:02:00,
2013-08-28 21:07:00,81.7,66.4,30.01,North,1,0.0,0.0,60,0.00,CLR,,0.00,WeatherDisplay:10.37,2013-08-29 02:07:00,
2013-08-28 21:12:00,81.3,66.6,30.01,North,1,0.0,0.0,61,0.00,CLR,,0.00,WeatherDisplay:10.37,2013-08-29 02:12:00,
2013-08-28 21:17:00,81.3,66.6,30.01,North,1,0.0,0.0,61,0.00,CLR,,0.00,WeatherDisplay:10.37,2013-08-29 02:17:00,
2013-08-28 21:22:00,81.0,66.2,30.01,North,1,0.0,0.0,61,0.00,CLR,,0.00,WeatherDisplay:10.37,2013-08-29 02:22:00,
2013-08-28 21:27:00,80.8,66.1,30.01,North,1,0.0,0.0,61,0.00,CLR,,0.00,WeatherDisplay:10.37,2013-08-29 02:27:00,
2013-08-28 21:32:00,80.6,66.4,30.01,North,1,0.0,0.0,62,0.00,CLR,,0.00,WeatherDisplay:10.37,2013-08-29 02:32:00,
2013-08-28 21:37:00,80.2,66.0,30.01,North,1,0.0,0.0,62,0.00,CLR,,0.00,WeatherDisplay:10.37,2013-08-29 02:37:00,
2013-08-28 21:42:00,80.1,66.3,30.01,North,1,0.0,0.0,63,0.00,CLR,,0.00,WeatherDisplay:10.37,2013-08-29 02:42:00,
2013-08-28 21:47:00,79.9,66.2,30.01,North,1,0.0,0.0,63,0.00,CLR,,0.00,WeatherDisplay:10.37,2013-08-29 02:47:00,
2013-08-28 21:52:00,79.7,66.0,30.01,North,1,0.0,0.0,63,0.00,CLR,,0.00,WeatherDisplay:10.37,2013-08-29 02:52:00,
2013-08-28 21:57:00,79.5,65.8,30.01,North,1,0.0,0.0,63,0.00,CLR,,0.00,WeatherDisplay:10.37,2013-08-29 02:57:00,
2013-08-28 22:02:00,79.3,66.1,30.01,North,1,0.0,0.0,64,0.00,CLR,,0.00,WeatherDisplay:10.37,2013-08-29 03:02:00,
2013-08-28 22:07:00,79.2,65.9,30.01,North,1,0.0,0.0,64,0.00,CLR,,0.00,WeatherDisplay:10.37,2013-08-29 03:07:00,
2013-08-28 22:12:00,79.0,66.2,30.01,North,1,0.0,0.0,65,0.00,CLR,,0.00,WeatherDisplay:10.37,2013-08-29 03:12:00,
2013-08-28 22:17:00,78.8,66.0,30.01,North,1,0.0,0.0,65,0.00,CLR,,0.00,WeatherDisplay:10.37,2013-08-29 03:17:00,
2013-08-28 22:22:00,78.6,65.9,30.01,North,1,0.0,0.0,65,0.00,CLR,,0.00,WeatherDisplay:10.37,2013-08-29 03:22:00,
2013-08-28 22:27:00,78.4,66.1,30.01,North,1,0.0,0.0,66,0.00,CLR,,0.00,WeatherDisplay:10.37,2013-08-29 03:27:00,
2013-08-28 22:32:00,78.4,66.1,30.01,North,1,0.0,0.0,66,0.00,CLR,,0.00,WeatherDisplay:10.37,2013-08-29 03:32:00,
2013-08-28 22:37:00,78.3,66.0,30.01,North,1,0.0,0.0,66,0.00,CLR,,0.00,WeatherDisplay:10.37,2013-08-29 03:37:00,
2013-08-28 22:42:00,78.3,66.0,30.01,North,1,0.0,0.0,66,0.00,CLR,,0.00,WeatherDisplay:10.37,2013-08-29 03:42:00,
2013-08-28 22:47:00,78.1,66.2,30.01,North,1,0.0,0.0,67,0.00,CLR,,0.00,WeatherDisplay:10.37,2013-08-29 03:47:00,
2013-08-28 22:52:00,78.1,66.2,30.01,North,1,0.0,0.0,67,0.00,CLR,,0.00,WeatherDisplay:10.37,2013-08-29 03:52:00,
2013-08-28 22:57:00,77.9,66.1,30.01,North,1,0.0,0.0,67,0.00,CLR,,0.00,WeatherDisplay:10.37,2013-08-29 03:57:00,
2013-08-28 23:01:00,77.9,66.1,30.01,North,1,0.0,0.0,67,0.00,CLR,,0.00,WeatherDisplay:10.37,2013-08-29 04:01:00,
2013-08-28 23:02:00,77.7,65.9,30.01,North,1,0.0,0.0,67,0.00,CLR,,0.00,WeatherDisplay:10.37,2013-08-29 04:02:00,
2013-08-28 23:07:00,77.7,65.9,30.01,North,1,0.0,0.0,67,0.00,CLR,,0.00,WeatherDisplay:10.37,2013-08-29 04:07:00,
2013-08-28 23:12:00,77.5,65.7,30.01,North,1,0.0,0.0,67,0.00,CLR,,0.00,WeatherDisplay:10.37,2013-08-29 04:12:00,
2013-08-28 23:17:00,77.4,66.0,30.01,North,1,0.0,0.0,68,0.00,CLR,,0.00,WeatherDisplay:10.37,2013-08-29 04:17:00,
2013-08-28 23:22:00,77.4,66.0,30.01,North,1,0.0,0.0,68,0.00,CLR,,0.00,WeatherDisplay:10.37,2013-08-29 04:22:00,
2013-08-28 23:27:00,77.4,66.0,30.01,North,1,0.0,0.0,68,0.00,CLR,,0.00,WeatherDisplay:10.37,2013-08-29 04:27:00,
2013-08-28 23:32:00,77.2,65.8,30.01,North,1,0.0,0.0,68,0.00,CLR,,0.00,WeatherDisplay:10.37,2013-08-29 04:32:00,
2013-08-28 23:37:00,77.2,66.2,30.01,North,1,0.0,0.0,69,0.00,CLR,,0.00,WeatherDisplay:10.37,2013-08-29 04:37:00,
2013-08-28 23:42:00,76.8,65.9,30.01,North,1,0.0,0.0,69,0.00,CLR,,0.00,WeatherDisplay:10.37,2013-08-29 04:42:00,
2013-08-28 23:47:00,76.8,65.9,30.02,North,1,0.0,0.0,69,0.00,CLR,,0.00,WeatherDisplay:10.37,2013-08-29 04:47:00,
2013-08-28 23:52:00,76.6,65.7,30.01,North,1,0.0,0.0,69,0.00,CLR,,0.00,WeatherDisplay:10.37,2013-08-29 04:52:00,
2013-08-28 23:57:00,76.5,65.9,30.02,North,1,0.0,0.0,70,0.00,CLR,,0.00,WeatherDisplay:10.37,2013-08-29 04:57:00,